sensor_id;sensor_type;location;lat;lon;timestamp;temperature;humidity
23671;DHT22;12012;51.998;7.614;2022-07-06T00:01:19;14.50;99.90
23671;DHT22;12012;51.998;7.614;2022-07-06T00:03:45;14.50;99.90
23671;DHT22;12012;51.998;7.614;2022-07-06T00:06:10;14.50;99.90
23671;DHT22;12012;51.998;7.614;2022-07-06T00:08:36;14.40;99.90
23671;DHT22;12012;51.998;7.614;2022-07-06T00:11:02;14.40;99.90
23671;DHT22;12012;51.998;7.614;2022-07-06T00:13:28;14.40;99.90
23671;DHT22;12012;51.998;7.614;2022-07-06T00:15:54;14.30;99.90
23671;DHT22;12012;51.998;7.614;2022-07-06T00:18:19;14.30;99.90
23671;DHT22;12012;51.998;7.614;2022-07-06T00:20:45;14.30;99.90
23671;DHT22;12012;51.998;7.614;2022-07-06T00:23:11;14.20;99.90
23671;DHT22;12012;51.998;7.614;2022-07-06T00:25:36;14.20;99.90
23671;DHT22;12012;51.998;7.614;2022-07-06T00:28:03;14.20;99.90
23671;DHT22;12012;51.998;7.614;2022-07-06T00:30:28;14.20;99.90
23671;DHT22;12012;51.998;7.614;2022-07-06T00:32:54;14.10;99.90
23671;DHT22;12012;51.998;7.614;2022-07-06T00:35:20;14.10;99.90
23671;DHT22;12012;51.998;7.614;2022-07-06T00:37:45;14.10;99.90
23671;DHT22;12012;51.998;7.614;2022-07-06T00:40:11;14.10;99.90
23671;DHT22;12012;51.998;7.614;2022-07-06T00:42:44;14.00;99.90
23671;DHT22;12012;51.998;7.614;2022-07-06T00:45:12;14.00;99.90
23671;DHT22;12012;51.998;7.614;2022-07-06T00:47:39;14.00;99.90
23671;DHT22;12012;51.998;7.614;2022-07-06T00:50:07;13.90;99.90
23671;DHT22;12012;51.998;7.614;2022-07-06T00:55:15;13.90;99.90
23671;DHT22;12012;51.998;7.614;2022-07-06T00:57:41;13.80;1.00
23671;DHT22;12012;51.998;7.614;2022-07-06T01:00:10;13.80;1.00
23671;DHT22;12012;51.998;7.614;2022-07-06T01:02:36;13.70;1.00
23671;DHT22;12012;51.998;7.614;2022-07-06T01:05:09;13.70;1.00
23671;DHT22;12012;51.998;7.614;2022-07-06T01:07:36;13.70;1.00
23671;DHT22;12012;51.998;7.614;2022-07-06T01:10:04;13.60;1.00
23671;DHT22;12012;51.998;7.614;2022-07-06T01:12:30;13.60;1.00
23671;DHT22;12012;51.998;7.614;2022-07-06T01:14:56;13.50;1.00
23671;DHT22;12012;51.998;7.614;2022-07-06T01:17:23;13.50;75.60
23671;DHT22;12012;51.998;7.614;2022-07-06T01:19:49;13.40;99.90
23671;DHT22;12012;51.998;7.614;2022-07-06T01:22:15;13.40;99.90
23671;DHT22;12012;51.998;7.614;2022-07-06T01:24:40;13.40;99.90
23671;DHT22;12012;51.998;7.614;2022-07-06T01:27:06;13.30;1.00
23671;DHT22;12012;51.998;7.614;2022-07-06T01:29:33;13.30;99.90
23671;DHT22;12012;51.998;7.614;2022-07-06T01:31:59;13.20;99.90
23671;DHT22;12012;51.998;7.614;2022-07-06T01:34:25;13.20;1.00
23671;DHT22;12012;51.998;7.614;2022-07-06T01:36:51;13.10;99.90
23671;DHT22;12012;51.998;7.614;2022-07-06T01:39:17;13.10;99.90
23671;DHT22;12012;51.998;7.614;2022-07-06T01:41:43;13.10;99.90
23671;DHT22;12012;51.998;7.614;2022-07-06T01:44:08;13.00;99.90
23671;DHT22;12012;51.998;7.614;2022-07-06T01:46:34;13.00;98.70
23671;DHT22;12012;51.998;7.614;2022-07-06T01:49:00;13.00;99.90
23671;DHT22;12012;51.998;7.614;2022-07-06T01:51:25;13.00;99.90
23671;DHT22;12012;51.998;7.614;2022-07-06T01:53:52;12.90;99.90
23671;DHT22;12012;51.998;7.614;2022-07-06T01:56:18;12.90;99.90
23671;DHT22;12012;51.998;7.614;2022-07-06T01:58:47;12.90;99.90
23671;DHT22;12012;51.998;7.614;2022-07-06T02:01:16;12.90;99.90
23671;DHT22;12012;51.998;7.614;2022-07-06T02:03:42;12.80;99.90
23671;DHT22;12012;51.998;7.614;2022-07-06T02:06:09;12.80;99.90
23671;DHT22;12012;51.998;7.614;2022-07-06T02:08:35;12.80;99.90
23671;DHT22;12012;51.998;7.614;2022-07-06T02:11:02;12.80;1.00
23671;DHT22;12012;51.998;7.614;2022-07-06T02:13:28;12.80;1.00
23671;DHT22;12012;51.998;7.614;2022-07-06T02:15:54;12.70;1.00
23671;DHT22;12012;51.998;7.614;2022-07-06T02:18:19;12.70;1.00
23671;DHT22;12012;51.998;7.614;2022-07-06T02:20:45;12.70;99.90
23671;DHT22;12012;51.998;7.614;2022-07-06T02:23:11;12.70;42.70
23671;DHT22;12012;51.998;7.614;2022-07-06T02:25:37;12.60;1.00
23671;DHT22;12012;51.998;7.614;2022-07-06T02:28:02;12.60;63.40
23671;DHT22;12012;51.998;7.614;2022-07-06T02:30:28;12.60;93.40
23671;DHT22;12012;51.998;7.614;2022-07-06T02:32:53;12.60;90.60
23671;DHT22;12012;51.998;7.614;2022-07-06T02:35:19;12.60;1.00
23671;DHT22;12012;51.998;7.614;2022-07-06T02:37:45;12.60;1.00
23671;DHT22;12012;51.998;7.614;2022-07-06T02:40:10;12.60;1.00
23671;DHT22;12012;51.998;7.614;2022-07-06T02:42:36;12.50;1.00
23671;DHT22;12012;51.998;7.614;2022-07-06T02:45:02;12.50;99.90
23671;DHT22;12012;51.998;7.614;2022-07-06T02:47:28;12.50;1.00
23671;DHT22;12012;51.998;7.614;2022-07-06T02:49:54;12.50;1.00
23671;DHT22;12012;51.998;7.614;2022-07-06T02:52:19;12.50;1.00
23671;DHT22;12012;51.998;7.614;2022-07-06T02:54:45;12.50;1.00
23671;DHT22;12012;51.998;7.614;2022-07-06T02:57:11;12.50;1.00
23671;DHT22;12012;51.998;7.614;2022-07-06T02:59:37;12.50;1.00
23671;DHT22;12012;51.998;7.614;2022-07-06T03:02:04;12.50;1.00
23671;DHT22;12012;51.998;7.614;2022-07-06T03:04:30;12.40;1.00
23671;DHT22;12012;51.998;7.614;2022-07-06T03:06:55;12.40;99.90
23671;DHT22;12012;51.998;7.614;2022-07-06T03:09:21;12.40;64.30
23671;DHT22;12012;51.998;7.614;2022-07-06T03:11:46;12.40;99.90
23671;DHT22;12012;51.998;7.614;2022-07-06T03:14:12;12.40;99.90
23671;DHT22;12012;51.998;7.614;2022-07-06T03:16:38;12.40;99.90
23671;DHT22;12012;51.998;7.614;2022-07-06T03:19:03;12.40;99.90
23671;DHT22;12012;51.998;7.614;2022-07-06T03:21:29;12.40;1.00
23671;DHT22;12012;51.998;7.614;2022-07-06T03:23:55;12.40;99.90
23671;DHT22;12012;51.998;7.614;2022-07-06T03:26:20;12.30;99.90
23671;DHT22;12012;51.998;7.614;2022-07-06T03:28:46;12.40;99.90
23671;DHT22;12012;51.998;7.614;2022-07-06T03:31:11;12.30;89.20
23671;DHT22;12012;51.998;7.614;2022-07-06T03:33:37;12.30;30.70
23671;DHT22;12012;51.998;7.614;2022-07-06T03:36:03;12.30;99.90
23671;DHT22;12012;51.998;7.614;2022-07-06T03:38:28;12.30;99.90
23671;DHT22;12012;51.998;7.614;2022-07-06T03:40:54;12.30;99.90
23671;DHT22;12012;51.998;7.614;2022-07-06T03:43:19;12.20;99.90
23671;DHT22;12012;51.998;7.614;2022-07-06T03:45:45;12.30;99.90
23671;DHT22;12012;51.998;7.614;2022-07-06T03:48:10;12.30;99.90
23671;DHT22;12012;51.998;7.614;2022-07-06T03:50:36;12.20;1.00
23671;DHT22;12012;51.998;7.614;2022-07-06T03:53:02;12.20;99.90
23671;DHT22;12012;51.998;7.614;2022-07-06T03:55:27;12.20;1.00
23671;DHT22;12012;51.998;7.614;2022-07-06T03:57:53;12.20;1.00
23671;DHT22;12012;51.998;7.614;2022-07-06T04:00:18;12.20;1.00
23671;DHT22;12012;51.998;7.614;2022-07-06T04:02:44;12.30;1.00
23671;DHT22;12012;51.998;7.614;2022-07-06T04:05:10;12.20;1.00
23671;DHT22;12012;51.998;7.614;2022-07-06T04:07:35;12.30;99.90
23671;DHT22;12012;51.998;7.614;2022-07-06T04:10:01;12.30;1.00
23671;DHT22;12012;51.998;7.614;2022-07-06T04:12:26;12.30;1.00
23671;DHT22;12012;51.998;7.614;2022-07-06T04:14:52;12.30;99.90
23671;DHT22;12012;51.998;7.614;2022-07-06T04:17:18;12.40;85.20
23671;DHT22;12012;51.998;7.614;2022-07-06T04:20:02;12.30;99.90
23671;DHT22;12012;51.998;7.614;2022-07-06T04:22:28;12.40;87.70
23671;DHT22;12012;51.998;7.614;2022-07-06T04:24:53;12.40;1.00
23671;DHT22;12012;51.998;7.614;2022-07-06T04:27:19;12.40;99.90
23671;DHT22;12012;51.998;7.614;2022-07-06T04:29:44;12.40;99.90
23671;DHT22;12012;51.998;7.614;2022-07-06T04:32:10;12.50;99.90
23671;DHT22;12012;51.998;7.614;2022-07-06T04:34:36;12.50;99.90
23671;DHT22;12012;51.998;7.614;2022-07-06T04:37:01;12.60;1.00
23671;DHT22;12012;51.998;7.614;2022-07-06T04:39:27;12.70;64.00
23671;DHT22;12012;51.998;7.614;2022-07-06T04:41:53;12.80;99.90
23671;DHT22;12012;51.998;7.614;2022-07-06T04:44:18;12.90;97.50
23671;DHT22;12012;51.998;7.614;2022-07-06T04:46:44;13.00;78.90
23671;DHT22;12012;51.998;7.614;2022-07-06T04:49:10;13.10;1.00
23671;DHT22;12012;51.998;7.614;2022-07-06T04:51:35;13.20;99.90
23671;DHT22;12012;51.998;7.614;2022-07-06T04:54:01;13.30;1.70
23671;DHT22;12012;51.998;7.614;2022-07-06T04:56:26;13.40;99.90
23671;DHT22;12012;51.998;7.614;2022-07-06T04:58:52;13.40;1.00
23671;DHT22;12012;51.998;7.614;2022-07-06T05:01:17;13.50;99.90
23671;DHT22;12012;51.998;7.614;2022-07-06T05:03:43;13.70;99.90
23671;DHT22;12012;51.998;7.614;2022-07-06T05:06:09;13.70;1.00
23671;DHT22;12012;51.998;7.614;2022-07-06T05:08:34;13.80;99.90
23671;DHT22;12012;51.998;7.614;2022-07-06T05:11:00;13.90;99.90
23671;DHT22;12012;51.998;7.614;2022-07-06T05:13:26;14.00;99.90
23671;DHT22;12012;51.998;7.614;2022-07-06T05:15:51;14.10;99.90
23671;DHT22;12012;51.998;7.614;2022-07-06T05:18:17;14.20;99.90
23671;DHT22;12012;51.998;7.614;2022-07-06T05:20:43;14.30;99.90
23671;DHT22;12012;51.998;7.614;2022-07-06T05:23:09;14.40;99.90
23671;DHT22;12012;51.998;7.614;2022-07-06T05:25:35;14.50;99.90
23671;DHT22;12012;51.998;7.614;2022-07-06T05:28:02;14.60;1.00
23671;DHT22;12012;51.998;7.614;2022-07-06T05:30:28;14.70;1.00
23671;DHT22;12012;51.998;7.614;2022-07-06T05:32:54;14.70;1.00
23671;DHT22;12012;51.998;7.614;2022-07-06T05:35:19;14.80;1.00
23671;DHT22;12012;51.998;7.614;2022-07-06T05:37:45;14.90;1.00
23671;DHT22;12012;51.998;7.614;2022-07-06T05:40:11;15.00;1.00
23671;DHT22;12012;51.998;7.614;2022-07-06T05:42:37;15.10;99.90
23671;DHT22;12012;51.998;7.614;2022-07-06T05:45:02;15.20;99.90
23671;DHT22;12012;51.998;7.614;2022-07-06T05:47:29;15.30;99.90
23671;DHT22;12012;51.998;7.614;2022-07-06T05:50:13;15.40;99.90
23671;DHT22;12012;51.998;7.614;2022-07-06T05:52:40;15.50;99.90
23671;DHT22;12012;51.998;7.614;2022-07-06T05:55:07;15.60;61.20
23671;DHT22;12012;51.998;7.614;2022-07-06T05:57:33;15.70;9.30
23671;DHT22;12012;51.998;7.614;2022-07-06T05:59:58;15.80;1.00
23671;DHT22;12012;51.998;7.614;2022-07-06T06:02:24;15.80;1.00
23671;DHT22;12012;51.998;7.614;2022-07-06T06:04:49;15.90;1.00
23671;DHT22;12012;51.998;7.614;2022-07-06T06:07:15;16.00;1.00
23671;DHT22;12012;51.998;7.614;2022-07-06T06:09:40;16.10;1.00
23671;DHT22;12012;51.998;7.614;2022-07-06T06:12:06;16.20;1.00
23671;DHT22;12012;51.998;7.614;2022-07-06T06:14:32;16.30;99.90
23671;DHT22;12012;51.998;7.614;2022-07-06T06:16:58;16.40;99.90
23671;DHT22;12012;51.998;7.614;2022-07-06T06:19:24;16.50;99.90
23671;DHT22;12012;51.998;7.614;2022-07-06T06:21:50;16.50;99.90
23671;DHT22;12012;51.998;7.614;2022-07-06T06:24:17;16.60;99.90
23671;DHT22;12012;51.998;7.614;2022-07-06T06:26:43;16.70;99.90
23671;DHT22;12012;51.998;7.614;2022-07-06T06:29:09;16.70;99.90
23671;DHT22;12012;51.998;7.614;2022-07-06T06:31:34;16.70;99.90
23671;DHT22;12012;51.998;7.614;2022-07-06T06:34:00;16.80;99.90
23671;DHT22;12012;51.998;7.614;2022-07-06T06:36:26;17.00;99.90
23671;DHT22;12012;51.998;7.614;2022-07-06T06:38:52;17.10;99.90
23671;DHT22;12012;51.998;7.614;2022-07-06T06:41:17;17.20;99.00
23671;DHT22;12012;51.998;7.614;2022-07-06T06:43:46;17.20;60.00
23671;DHT22;12012;51.998;7.614;2022-07-06T06:46:11;17.30;36.90
23671;DHT22;12012;51.998;7.614;2022-07-06T06:48:37;17.40;9.40
23671;DHT22;12012;51.998;7.614;2022-07-06T06:51:04;17.50;1.00
23671;DHT22;12012;51.998;7.614;2022-07-06T06:53:29;17.50;1.00
23671;DHT22;12012;51.998;7.614;2022-07-06T06:55:55;17.60;1.00
23671;DHT22;12012;51.998;7.614;2022-07-06T06:58:21;17.70;1.00
23671;DHT22;12012;51.998;7.614;2022-07-06T07:00:46;17.70;1.00
23671;DHT22;12012;51.998;7.614;2022-07-06T07:03:12;17.70;1.00
23671;DHT22;12012;51.998;7.614;2022-07-06T07:05:38;17.70;1.00
23671;DHT22;12012;51.998;7.614;2022-07-06T07:08:04;17.80;1.00
23671;DHT22;12012;51.998;7.614;2022-07-06T07:10:30;17.80;1.00
23671;DHT22;12012;51.998;7.614;2022-07-06T07:12:56;17.80;1.00
23671;DHT22;12012;51.998;7.614;2022-07-06T07:15:22;17.80;99.90
23671;DHT22;12012;51.998;7.614;2022-07-06T07:17:47;17.80;99.90
23671;DHT22;12012;51.998;7.614;2022-07-06T07:20:13;17.80;99.90
23671;DHT22;12012;51.998;7.614;2022-07-06T07:22:39;17.80;99.90
23671;DHT22;12012;51.998;7.614;2022-07-06T07:25:05;17.80;99.90
23671;DHT22;12012;51.998;7.614;2022-07-06T07:27:31;17.80;99.90
23671;DHT22;12012;51.998;7.614;2022-07-06T07:29:57;17.80;99.90
23671;DHT22;12012;51.998;7.614;2022-07-06T07:32:22;17.70;99.90
23671;DHT22;12012;51.998;7.614;2022-07-06T07:34:48;17.70;99.90
23671;DHT22;12012;51.998;7.614;2022-07-06T07:37:14;17.70;99.90
23671;DHT22;12012;51.998;7.614;2022-07-06T07:39:39;17.60;99.90
23671;DHT22;12012;51.998;7.614;2022-07-06T07:42:05;17.60;99.90
23671;DHT22;12012;51.998;7.614;2022-07-06T07:44:30;17.60;99.90
23671;DHT22;12012;51.998;7.614;2022-07-06T07:46:56;17.60;99.90
23671;DHT22;12012;51.998;7.614;2022-07-06T07:49:22;17.60;99.90
23671;DHT22;12012;51.998;7.614;2022-07-06T07:51:49;17.70;99.90
23671;DHT22;12012;51.998;7.614;2022-07-06T07:54:14;17.80;99.90
23671;DHT22;12012;51.998;7.614;2022-07-06T07:56:40;17.90;99.90
23671;DHT22;12012;51.998;7.614;2022-07-06T07:59:07;18.00;99.90
23671;DHT22;12012;51.998;7.614;2022-07-06T08:01:33;17.90;99.90
23671;DHT22;12012;51.998;7.614;2022-07-06T08:03:59;18.00;99.90
23671;DHT22;12012;51.998;7.614;2022-07-06T08:06:24;18.00;99.90
23671;DHT22;12012;51.998;7.614;2022-07-06T08:08:50;18.10;99.90
23671;DHT22;12012;51.998;7.614;2022-07-06T08:11:15;18.20;99.90
23671;DHT22;12012;51.998;7.614;2022-07-06T08:13:41;18.30;99.90
23671;DHT22;12012;51.998;7.614;2022-07-06T08:16:07;18.30;99.90
23671;DHT22;12012;51.998;7.614;2022-07-06T08:18:33;18.40;99.90
23671;DHT22;12012;51.998;7.614;2022-07-06T08:20:59;18.60;99.90
23671;DHT22;12012;51.998;7.614;2022-07-06T08:23:25;18.70;99.90
23671;DHT22;12012;51.998;7.614;2022-07-06T08:25:50;19.00;99.90
23671;DHT22;12012;51.998;7.614;2022-07-06T08:28:16;19.30;99.90
23671;DHT22;12012;51.998;7.614;2022-07-06T08:30:41;19.50;56.40
23671;DHT22;12012;51.998;7.614;2022-07-06T08:33:07;19.70;38.20
23671;DHT22;12012;51.998;7.614;2022-07-06T08:35:33;20.00;15.40
23671;DHT22;12012;51.998;7.614;2022-07-06T08:37:58;20.20;1.00
23671;DHT22;12012;51.998;7.614;2022-07-06T08:40:26;20.30;1.00
23671;DHT22;12012;51.998;7.614;2022-07-06T08:42:56;20.50;1.00
23671;DHT22;12012;51.998;7.614;2022-07-06T08:45:25;20.60;1.00
23671;DHT22;12012;51.998;7.614;2022-07-06T08:47:51;20.90;1.00
23671;DHT22;12012;51.998;7.614;2022-07-06T08:50:17;21.20;1.00
23671;DHT22;12012;51.998;7.614;2022-07-06T08:52:49;21.40;1.00
23671;DHT22;12012;51.998;7.614;2022-07-06T08:55:17;21.70;1.00
23671;DHT22;12012;51.998;7.614;2022-07-06T08:57:46;22.10;1.00
23671;DHT22;12012;51.998;7.614;2022-07-06T09:00:12;22.20;1.00
23671;DHT22;12012;51.998;7.614;2022-07-06T09:02:40;22.10;1.00
23671;DHT22;12012;51.998;7.614;2022-07-06T09:05:06;22.00;1.00
23671;DHT22;12012;51.998;7.614;2022-07-06T09:07:34;22.00;1.00
23671;DHT22;12012;51.998;7.614;2022-07-06T09:10:00;22.00;1.00
23671;DHT22;12012;51.998;7.614;2022-07-06T09:12:27;22.00;1.00
23671;DHT22;12012;51.998;7.614;2022-07-06T09:14:56;21.80;1.00
23671;DHT22;12012;51.998;7.614;2022-07-06T09:17:25;21.60;1.00
23671;DHT22;12012;51.998;7.614;2022-07-06T09:19:52;21.40;1.00
23671;DHT22;12012;51.998;7.614;2022-07-06T09:22:30;21.30;1.00
23671;DHT22;12012;51.998;7.614;2022-07-06T09:27:40;21.30;1.00
23671;DHT22;12012;51.998;7.614;2022-07-06T09:30:10;21.70;1.00
23671;DHT22;12012;51.998;7.614;2022-07-06T09:32:44;22.30;1.00
23671;DHT22;12012;51.998;7.614;2022-07-06T09:35:31;23.10;1.00
23671;DHT22;12012;51.998;7.614;2022-07-06T09:38:03;23.70;99.90
23671;DHT22;12012;51.998;7.614;2022-07-06T09:40:34;24.20;99.90
23671;DHT22;12012;51.998;7.614;2022-07-06T09:43:18;24.60;99.90
23671;DHT22;12012;51.998;7.614;2022-07-06T09:45:46;24.90;99.90
23671;DHT22;12012;51.998;7.614;2022-07-06T09:48:22;24.90;99.90
23671;DHT22;12012;51.998;7.614;2022-07-06T09:50:55;24.80;99.90
23671;DHT22;12012;51.998;7.614;2022-07-06T09:53:23;24.40;99.90
23671;DHT22;12012;51.998;7.614;2022-07-06T09:55:58;24.10;99.90
23671;DHT22;12012;51.998;7.614;2022-07-06T09:58:24;23.80;99.90
23671;DHT22;12012;51.998;7.614;2022-07-06T10:00:50;23.60;99.90
23671;DHT22;12012;51.998;7.614;2022-07-06T10:03:17;23.30;99.90
23671;DHT22;12012;51.998;7.614;2022-07-06T10:05:44;23.00;99.90
23671;DHT22;12012;51.998;7.614;2022-07-06T10:08:16;22.90;99.90
23671;DHT22;12012;51.998;7.614;2022-07-06T10:10:43;22.80;99.90
23671;DHT22;12012;51.998;7.614;2022-07-06T10:13:10;22.60;99.90
23671;DHT22;12012;51.998;7.614;2022-07-06T10:15:39;22.50;99.90
23671;DHT22;12012;51.998;7.614;2022-07-06T10:18:08;22.40;99.90
23671;DHT22;12012;51.998;7.614;2022-07-06T10:20:36;22.30;99.90
23671;DHT22;12012;51.998;7.614;2022-07-06T10:23:04;22.30;99.90
23671;DHT22;12012;51.998;7.614;2022-07-06T10:25:32;22.40;99.90
23671;DHT22;12012;51.998;7.614;2022-07-06T10:27:58;22.60;99.90
23671;DHT22;12012;51.998;7.614;2022-07-06T10:30:25;22.80;99.90
23671;DHT22;12012;51.998;7.614;2022-07-06T10:32:51;23.10;99.90
23671;DHT22;12012;51.998;7.614;2022-07-06T10:35:20;23.30;99.90
23671;DHT22;12012;51.998;7.614;2022-07-06T10:38:11;23.40;99.90
23671;DHT22;12012;51.998;7.614;2022-07-06T10:40:38;23.60;99.90
23671;DHT22;12012;51.998;7.614;2022-07-06T10:43:22;23.70;99.90
23671;DHT22;12012;51.998;7.614;2022-07-06T10:50:53;24.50;99.90
23671;DHT22;12012;51.998;7.614;2022-07-06T10:53:23;25.00;99.90
23671;DHT22;12012;51.998;7.614;2022-07-06T10:55:51;25.50;99.90
23671;DHT22;12012;51.998;7.614;2022-07-06T10:58:36;25.90;99.90
23671;DHT22;12012;51.998;7.614;2022-07-06T11:01:03;26.50;99.90
23671;DHT22;12012;51.998;7.614;2022-07-06T11:03:33;27.20;99.90
23671;DHT22;12012;51.998;7.614;2022-07-06T11:06:01;27.40;99.90
23671;DHT22;12012;51.998;7.614;2022-07-06T11:16:27;26.20;99.90
23671;DHT22;12012;51.998;7.614;2022-07-06T11:19:01;26.00;99.90
23671;DHT22;12012;51.998;7.614;2022-07-06T11:21:44;26.40;99.90
23671;DHT22;12012;51.998;7.614;2022-07-06T11:24:17;26.70;99.90
23671;DHT22;12012;51.998;7.614;2022-07-06T11:26:45;27.30;99.90
23671;DHT22;12012;51.998;7.614;2022-07-06T11:29:12;27.30;99.90
23671;DHT22;12012;51.998;7.614;2022-07-06T11:31:40;27.10;99.90
23671;DHT22;12012;51.998;7.614;2022-07-06T11:34:07;26.60;99.90
23671;DHT22;12012;51.998;7.614;2022-07-06T11:36:34;26.50;99.90
23671;DHT22;12012;51.998;7.614;2022-07-06T11:38:59;26.30;99.90
23671;DHT22;12012;51.998;7.614;2022-07-06T11:41:25;26.80;99.90
23671;DHT22;12012;51.998;7.614;2022-07-06T11:43:51;27.10;99.90
23671;DHT22;12012;51.998;7.614;2022-07-06T11:46:27;27.00;99.90
23671;DHT22;12012;51.998;7.614;2022-07-06T11:48:55;26.80;99.90
23671;DHT22;12012;51.998;7.614;2022-07-06T11:51:22;26.50;99.90
23671;DHT22;12012;51.998;7.614;2022-07-06T11:53:51;26.70;99.90
23671;DHT22;12012;51.998;7.614;2022-07-06T11:56:17;27.10;99.90
23671;DHT22;12012;51.998;7.614;2022-07-06T11:58:54;27.70;99.90
23671;DHT22;12012;51.998;7.614;2022-07-06T12:01:21;28.50;99.90
23671;DHT22;12012;51.998;7.614;2022-07-06T12:03:49;29.30;99.90
23671;DHT22;12012;51.998;7.614;2022-07-06T12:08:52;30.50;99.90
23671;DHT22;12012;51.998;7.614;2022-07-06T12:11:20;30.40;99.90
23671;DHT22;12012;51.998;7.614;2022-07-06T12:13:47;29.80;99.90
23671;DHT22;12012;51.998;7.614;2022-07-06T12:16:13;29.30;99.90
23671;DHT22;12012;51.998;7.614;2022-07-06T12:18:41;29.40;99.90
23671;DHT22;12012;51.998;7.614;2022-07-06T12:21:08;29.70;99.90
23671;DHT22;12012;51.998;7.614;2022-07-06T12:23:41;30.20;99.90
23671;DHT22;12012;51.998;7.614;2022-07-06T12:26:08;30.80;99.90
23671;DHT22;12012;51.998;7.614;2022-07-06T12:28:34;31.20;99.90
23671;DHT22;12012;51.998;7.614;2022-07-06T12:31:00;31.40;99.90
23671;DHT22;12012;51.998;7.614;2022-07-06T12:33:25;31.70;99.90
23671;DHT22;12012;51.998;7.614;2022-07-06T12:35:53;31.90;99.90
23671;DHT22;12012;51.998;7.614;2022-07-06T12:38:26;32.00;99.90
23671;DHT22;12012;51.998;7.614;2022-07-06T12:40:53;32.20;99.90
23671;DHT22;12012;51.998;7.614;2022-07-06T12:43:40;32.50;99.90
23671;DHT22;12012;51.998;7.614;2022-07-06T12:46:30;32.90;99.90
23671;DHT22;12012;51.998;7.614;2022-07-06T12:48:57;33.30;99.90
23671;DHT22;12012;51.998;7.614;2022-07-06T12:51:24;33.20;99.90
23671;DHT22;12012;51.998;7.614;2022-07-06T12:53:49;32.60;99.90
23671;DHT22;12012;51.998;7.614;2022-07-06T12:56:15;32.10;99.90
23671;DHT22;12012;51.998;7.614;2022-07-06T12:58:58;31.80;99.90
23671;DHT22;12012;51.998;7.614;2022-07-06T13:01:24;31.70;99.90
23671;DHT22;12012;51.998;7.614;2022-07-06T13:03:55;31.60;99.90
23671;DHT22;12012;51.998;7.614;2022-07-06T13:06:32;31.10;99.90
23671;DHT22;12012;51.998;7.614;2022-07-06T13:08:57;30.30;99.90
23671;DHT22;12012;51.998;7.614;2022-07-06T13:11:23;30.20;99.90
23671;DHT22;12012;51.998;7.614;2022-07-06T13:13:49;30.50;99.90
23671;DHT22;12012;51.998;7.614;2022-07-06T13:16:14;30.90;99.90
23671;DHT22;12012;51.998;7.614;2022-07-06T13:18:40;31.30;99.90
23671;DHT22;12012;51.998;7.614;2022-07-06T13:21:06;31.80;99.90
23671;DHT22;12012;51.998;7.614;2022-07-06T13:23:31;31.80;99.90
23671;DHT22;12012;51.998;7.614;2022-07-06T13:25:57;31.20;99.90
23671;DHT22;12012;51.998;7.614;2022-07-06T13:28:22;30.50;99.90
23671;DHT22;12012;51.998;7.614;2022-07-06T13:30:48;29.90;99.90
23671;DHT22;12012;51.998;7.614;2022-07-06T13:33:13;29.20;99.90
23671;DHT22;12012;51.998;7.614;2022-07-06T13:35:39;28.90;99.90
23671;DHT22;12012;51.998;7.614;2022-07-06T13:38:05;28.60;99.90
23671;DHT22;12012;51.998;7.614;2022-07-06T13:40:30;28.30;99.90
23671;DHT22;12012;51.998;7.614;2022-07-06T13:42:56;27.90;99.90
23671;DHT22;12012;51.998;7.614;2022-07-06T13:45:21;27.50;99.90
23671;DHT22;12012;51.998;7.614;2022-07-06T13:47:47;27.10;99.90
23671;DHT22;12012;51.998;7.614;2022-07-06T13:50:12;26.80;99.90
23671;DHT22;12012;51.998;7.614;2022-07-06T13:52:38;26.60;99.90
23671;DHT22;12012;51.998;7.614;2022-07-06T13:55:05;26.40;99.90
23671;DHT22;12012;51.998;7.614;2022-07-06T13:57:31;26.20;99.90
23671;DHT22;12012;51.998;7.614;2022-07-06T13:59:57;25.90;99.90
23671;DHT22;12012;51.998;7.614;2022-07-06T14:02:22;25.70;99.90
23671;DHT22;12012;51.998;7.614;2022-07-06T14:04:48;25.70;99.90
23671;DHT22;12012;51.998;7.614;2022-07-06T14:07:13;25.80;99.90
23671;DHT22;12012;51.998;7.614;2022-07-06T14:09:39;25.90;99.90
23671;DHT22;12012;51.998;7.614;2022-07-06T14:12:05;26.30;99.90
23671;DHT22;12012;51.998;7.614;2022-07-06T14:14:31;26.90;99.90
23671;DHT22;12012;51.998;7.614;2022-07-06T14:16:56;26.90;99.90
23671;DHT22;12012;51.998;7.614;2022-07-06T14:19:23;26.60;99.90
23671;DHT22;12012;51.998;7.614;2022-07-06T14:21:49;26.40;99.90
23671;DHT22;12012;51.998;7.614;2022-07-06T14:24:15;26.10;99.90
23671;DHT22;12012;51.998;7.614;2022-07-06T14:26:41;25.90;99.90
23671;DHT22;12012;51.998;7.614;2022-07-06T14:29:06;25.70;99.90
23671;DHT22;12012;51.998;7.614;2022-07-06T14:31:32;25.50;99.90
23671;DHT22;12012;51.998;7.614;2022-07-06T14:33:57;25.30;99.90
23671;DHT22;12012;51.998;7.614;2022-07-06T14:36:23;25.20;99.90
23671;DHT22;12012;51.998;7.614;2022-07-06T14:38:49;25.20;99.90
23671;DHT22;12012;51.998;7.614;2022-07-06T14:41:14;25.10;99.90
23671;DHT22;12012;51.998;7.614;2022-07-06T14:43:40;25.00;99.90
23671;DHT22;12012;51.998;7.614;2022-07-06T14:46:06;25.00;99.90
23671;DHT22;12012;51.998;7.614;2022-07-06T14:48:32;25.00;99.90
23671;DHT22;12012;51.998;7.614;2022-07-06T14:50:57;24.80;99.90
23671;DHT22;12012;51.998;7.614;2022-07-06T14:53:23;24.60;99.90
23671;DHT22;12012;51.998;7.614;2022-07-06T14:55:49;24.40;99.90
23671;DHT22;12012;51.998;7.614;2022-07-06T14:58:14;24.20;99.90
23671;DHT22;12012;51.998;7.614;2022-07-06T15:00:46;24.00;99.90
23671;DHT22;12012;51.998;7.614;2022-07-06T15:03:12;24.00;99.90
23671;DHT22;12012;51.998;7.614;2022-07-06T15:05:38;24.60;99.90
23671;DHT22;12012;51.998;7.614;2022-07-06T15:08:05;25.10;99.90
23671;DHT22;12012;51.998;7.614;2022-07-06T15:10:31;25.30;99.90
23671;DHT22;12012;51.998;7.614;2022-07-06T15:12:58;25.40;99.90
23671;DHT22;12012;51.998;7.614;2022-07-06T15:15:23;25.50;99.90
23671;DHT22;12012;51.998;7.614;2022-07-06T15:17:49;25.70;99.90
23671;DHT22;12012;51.998;7.614;2022-07-06T15:20:15;25.80;99.90
23671;DHT22;12012;51.998;7.614;2022-07-06T15:22:42;25.70;99.90
23671;DHT22;12012;51.998;7.614;2022-07-06T15:25:08;25.40;99.90
23671;DHT22;12012;51.998;7.614;2022-07-06T15:27:34;25.20;99.90
23671;DHT22;12012;51.998;7.614;2022-07-06T15:30:00;25.00;99.90
23671;DHT22;12012;51.998;7.614;2022-07-06T15:32:25;25.10;99.90
23671;DHT22;12012;51.998;7.614;2022-07-06T15:34:51;25.70;99.90
23671;DHT22;12012;51.998;7.614;2022-07-06T15:37:16;26.30;99.90
23671;DHT22;12012;51.998;7.614;2022-07-06T15:39:42;26.80;99.90
23671;DHT22;12012;51.998;7.614;2022-07-06T15:42:07;27.20;99.90
23671;DHT22;12012;51.998;7.614;2022-07-06T15:44:33;27.30;99.90
23671;DHT22;12012;51.998;7.614;2022-07-06T15:47:04;27.00;99.90
23671;DHT22;12012;51.998;7.614;2022-07-06T15:49:31;26.70;99.90
23671;DHT22;12012;51.998;7.614;2022-07-06T15:51:56;26.40;99.90
23671;DHT22;12012;51.998;7.614;2022-07-06T15:54:22;26.00;99.90